Time;durP1;ratioP1;P1;durP2;ratioP2;P2;SDS_P1;SDS_P2;PMS_P1;PMS_P2;Temp;Humidity;BMP_temperature;BMP_pressure;BME280_temperature;BME280_humidity;BME280_pressure;Samples;Min_cycle;Max_cycle;Signal;HPM_P1;HPM_P2
2023/12/08 00:02:00;;;;;;;12.13;5.93;;;;;;;-144.05;56.47;57067.59;5025548;28;20550;-82
2023/12/08 00:04:26;;;;;;;12.30;6.32;;;;;;;-144.05;55.75;57084.59;5026262;28;20033;-83
2023/12/08 00:06:52;;;;;;;21.67;7.55;;;;;;;-144.05;56.04;57073.97;5029570;28;20026;-83
2023/12/08 00:09:19;;;;;;;14.25;7.03;;;;;;;-144.05;56.19;57048.50;5022794;28;20376;-84
2023/12/08 00:11:45;;;;;;;30.73;11.45;;;;;;;-144.05;56.52;57086.72;5042226;28;20033;-82
2023/12/08 00:14:11;;;;;;;11.55;6.15;;;;;;;-144.05;57.24;57090.97;5024160;28;20030;-81
2023/12/08 00:16:37;;;;;;;15.65;6.75;;;;;;;-144.05;57.75;57061.22;5023145;28;20060;-82
2023/12/08 00:19:04;;;;;;;11.52;6.10;;;;;;;-144.05;57.64;57086.72;5022807;28;20113;-82
2023/12/08 00:21:30;;;;;;;12.52;5.95;;;;;;;-144.05;57.39;57082.47;5022673;28;20143;-82
2023/12/08 00:23:56;;;;;;;10.18;5.40;;;;;;;-144.05;57.38;57069.72;5034978;28;20383;-81
2023/12/08 00:26:23;;;;;;;11.68;5.75;;;;;;;-144.05;57.12;57082.47;5026216;28;20026;-81
2023/12/08 00:28:49;;;;;;;10.68;5.43;;;;;;;-144.05;57.21;57086.72;5033103;28;20021;-83
2023/12/08 00:31:15;;;;;;;8.75;4.90;;;;;;;-144.05;56.98;57093.09;5028884;28;20108;-83
2023/12/08 00:33:43;;;;;;;16.52;7.15;;;;;;;-144.05;56.64;57050.63;5031995;28;20033;-82
2023/12/08 00:36:16;;;;;;;8.88;5.28;;;;;;;-144.05;56.57;57061.22;5024280;28;20018;-82
2023/12/08 00:38:44;;;;;;;10.68;5.60;;;;;;;-144.05;55.89;57069.72;5027777;28;20045;-86
2023/12/08 00:41:10;;;;;;;17.10;7.07;;;;;;;-144.05;55.84;57052.75;5041127;28;20030;-83
2023/12/08 00:43:37;;;;;;;14.60;6.75;;;;;;;-144.05;55.86;57071.84;5055293;28;20105;-84
2023/12/08 00:46:04;;;;;;;10.02;4.43;;;;;;;-144.05;55.53;57069.72;5045556;28;20030;-85
2023/12/08 00:48:30;;;;;;;14.00;6.97;;;;;;;-144.05;55.29;57088.84;5028504;28;20424;-83
2023/12/08 00:50:56;;;;;;;13.60;6.40;;;;;;;-144.05;56.06;57067.59;5023994;28;20030;-82
2023/12/08 00:53:23;;;;;;;9.27;4.57;;;;;;;-144.05;55.88;57073.97;5029991;28;20099;-84
2023/12/08 00:55:49;;;;;;;45.97;13.00;;;;;;;-144.05;54.97;57093.09;5047232;28;20144;-81
2023/12/08 00:58:15;;;;;;;13.55;6.47;;;;;;;-144.05;54.88;57065.47;5023271;28;20045;-82
2023/12/08 01:00:41;;;;;;;23.38;8.95;;;;;;;-144.05;54.65;57076.09;5032209;28;20025;-84
2023/12/08 01:03:07;;;;;;;10.18;5.43;;;;;;;-144.05;55.24;57056.97;5033502;28;20037;-83
2023/12/08 01:05:34;;;;;;;10.77;5.53;;;;;;;-144.05;55.31;57061.22;5032349;28;20033;-82
2023/12/08 01:08:00;;;;;;;7.28;4.40;;;;;;;-144.05;53.72;57020.88;5022096;28;20049;-82
2023/12/08 01:10:26;;;;;;;6.53;3.63;;;;;;;-144.05;51.32;57056.97;5029972;28;20029;-81
2023/12/08 01:12:52;;;;;;;5.75;3.20;;;;;;;-144.05;51.25;57029.38;5029755;28;20033;-80
2023/12/08 01:15:19;;;;;;;5.30;3.13;;;;;;;-144.05;49.74;57035.75;5022632;28;20042;-81
2023/12/08 01:17:45;;;;;;;5.75;3.30;;;;;;;-144.05;49.87;57061.22;5025045;28;20033;-82
2023/12/08 01:20:11;;;;;;;6.65;3.47;;;;;;;-144.05;49.54;57044.25;5025897;28;20025;-82
2023/12/08 01:22:37;;;;;;;4.90;3.17;;;;;;;-144.05;48.78;57056.97;5032967;28;20069;-83
2023/12/08 01:25:05;;;;;;;5.95;3.15;;;;;;;-144.05;49.71;57061.22;5033303;28;20060;-81
2023/12/08 01:27:32;;;;;;;5.65;3.33;;;;;;;-144.05;49.06;57042.13;5034401;28;20104;-82
2023/12/08 01:29:58;;;;;;;5.60;3.05;;;;;;;-144.05;48.53;57044.25;5025994;28;20021;-84
2023/12/08 01:32:25;;;;;;;8.82;4.13;;;;;;;-144.05;48.39;57018.75;5026815;28;20060;-84
2023/12/08 01:34:51;;;;;;;6.93;3.60;;;;;;;-144.05;49.13;57065.47;5025867;28;20026;-82
2023/12/08 01:37:17;;;;;;;5.18;3.13;;;;;;;-144.05;49.07;57056.97;5026758;28;20030;-82
2023/12/08 01:39:43;;;;;;;8.77;4.13;;;;;;;-144.05;48.51;57044.25;5022161;28;20042;-78
2023/12/08 01:42:10;;;;;;;6.85;4.20;;;;;;;-144.05;48.35;57006.00;5057735;28;20085;-82
2023/12/08 01:44:36;;;;;;;7.15;3.75;;;;;;;-144.05;47.75;57054.88;5038561;28;20033;-83
2023/12/08 01:47:05;;;;;;;5.53;3.50;;;;;;;-144.05;48.05;57018.75;5025664;28;20471;-82
2023/12/08 01:49:31;;;;;;;7.20;3.67;;;;;;;-144.05;48.15;57063.34;5032177;28;20392;-82
2023/12/08 01:51:58;;;;;;;7.35;4.07;;;;;;;-144.05;47.89;57031.50;5040843;28;20029;-82
2023/12/08 01:54:24;;;;;;;8.23;4.30;;;;;;;-144.05;47.96;57078.22;5032179;28;20095;-81
2023/12/08 01:56:51;;;;;;;9.68;5.90;;;;;;;-144.05;48.56;57052.75;5029412;28;20483;-82
2023/12/08 01:59:19;;;;;;;8.88;3.65;;;;;;;-144.05;48.51;57054.88;5021696;28;20534;-83
2023/12/08 02:01:45;;;;;;;8.15;4.22;;;;;;;-144.05;47.84;57054.88;5036369;28;20120;-82
2023/12/08 02:04:11;;;;;;;7.00;3.40;;;;;;;-144.05;48.24;57044.25;5021887;28;20109;-83
2023/12/08 02:06:38;;;;;;;7.90;3.92;;;;;;;-144.05;47.31;57086.72;5021729;28;20101;-82
2023/12/08 02:09:04;;;;;;;4.93;3.10;;;;;;;-144.05;47.84;57046.38;5021624;28;20038;-84
2023/12/08 02:11:30;;;;;;;7.07;3.88;;;;;;;-144.05;47.04;57046.38;5028873;28;20072;-83
2023/12/08 02:13:57;;;;;;;6.55;3.70;;;;;;;-144.05;47.30;57027.25;5031927;28;20029;-82
2023/12/08 02:16:41;;;;;;;6.70;3.67;;;2.10;99.90;;;-144.05;47.00;57048.50;5031818;28;20029;-82
2023/12/08 02:19:12;;;;;;;5.22;3.70;;;;;;;-144.05;46.67;57086.72;5024640;28;20066;-83
2023/12/08 02:21:39;;;;;;;6.18;3.45;;;;;;;-144.05;46.64;57033.63;5031101;28;20365;-82
2023/12/08 02:24:05;;;;;;;9.90;4.07;;;;;;;-144.05;46.26;57090.97;5025122;28;20109;-85
2023/12/08 02:26:32;;;;;;;9.23;4.72;;;;;;;-144.05;46.32;57023.00;5040505;28;20025;-83
2023/12/08 02:28:58;;;;;;;7.35;4.25;;;;;;;-144.05;46.06;57059.09;5025246;28;20025;-82
2023/12/08 02:31:47;;;;;;;6.65;4.50;;;;;;;-144.05;46.11;57048.50;5024097;28;20026;-84
2023/12/08 02:34:21;;;;;;;7.07;4.35;;;;;;;-144.05;45.96;57044.25;5026519;28;20105;-84
2023/12/08 02:36:52;;;;;;;8.15;3.95;;;;;;;-144.05;46.23;57048.50;5037260;28;20567;-83
2023/12/08 02:41:43;;;;;;;10.40;4.55;;;;;;;-144.05;46.45;57052.75;5070013;28;20395;-79
2023/12/08 02:44:09;;;;;;;7.32;4.30;;;;;;;-144.05;46.75;57023.00;5050363;28;20033;-79
2023/12/08 02:46:35;;;;;;;8.40;4.43;;;;;;;-144.05;47.44;57056.97;5051251;28;20029;-78
2023/12/08 02:49:01;;;;;;;8.27;4.70;;;;;;;-144.05;47.48;57029.38;5050589;28;20083;-79
2023/12/08 02:51:27;;;;;;;7.65;4.15;;;;;;;-144.05;47.41;57027.25;5051394;28;20067;-80
2023/12/08 02:53:54;;;;;;;8.43;4.85;;;;;;;-144.05;47.34;57061.22;5043805;23;20075;-83
2023/12/08 02:56:20;;;;;;;7.28;4.07;;;;;;;-144.05;47.84;57076.09;5024335;28;20515;-83
2023/12/08 02:58:46;;;;;;;7.90;4.60;;;;;;;-144.05;47.45;57033.63;5007324;28;20037;-83
2023/12/08 03:01:14;;;;;;;8.38;4.22;;;;;;;-144.05;47.17;57048.50;5007645;28;20125;-82
2023/12/08 03:03:40;;;;;;;11.70;4.50;;;;;;;-144.05;48.09;57027.25;5008607;28;20611;-82
2023/12/08 03:06:07;;;;;;;9.38;4.80;;;;;;;-144.05;47.85;57046.38;5007143;28;20060;-82
2023/12/08 03:08:33;;;;;;;6.43;4.57;;;;;;;-144.05;47.75;57056.97;5007412;28;20061;-84
2023/12/08 03:10:59;;;;;;;9.88;5.03;;;;;;;-144.05;47.44;57050.63;5007668;28;20113;-84
2023/12/08 03:13:25;;;;;;;9.73;4.78;;;;;;;-144.05;47.89;57048.50;5007229;28;20068;-82
2023/12/08 03:15:52;;;;;;;7.53;4.78;;;;;;;-144.05;47.88;57023.00;5007417;28;20443;-83
2023/12/08 03:18:18;;;;;;;10.05;5.55;;;;;;;-144.05;48.22;57054.88;5009149;28;20098;-82
2023/12/08 03:20:44;;;;;;;10.65;4.90;;;;;;;-144.05;48.29;57031.50;5007277;28;20196;-84
2023/12/08 03:23:10;;;;;;;10.93;5.32;;;;;;;-144.05;49.06;57048.50;5008489;28;20120;-84
2023/12/08 03:25:36;;;;;;;8.15;4.88;;;;;;;-144.05;48.97;57033.63;5007168;28;20085;-83
2023/12/08 03:28:03;;;;;;;9.05;4.82;;;;;;;-144.05;49.43;57065.47;5008628;28;20367;-82
2023/12/08 03:30:29;;;;;;;9.55;5.18;;;;;;;-144.05;49.52;57048.50;5007778;28;20370;-83
2023/12/08 03:32:55;;;;;;;10.77;5.88;;;;;;;-144.05;50.55;57069.72;5011889;28;20026;-85
2023/12/08 03:35:22;;;;;;;10.65;5.63;;;;;;;-144.05;51.54;57063.34;5017942;28;20034;-84
2023/12/08 03:37:48;;;;;;;10.63;5.80;;;;;;;-144.05;53.08;57027.25;5010625;28;20078;-85
2023/12/08 03:40:14;;;;;;;10.23;5.78;;;;;;;-144.05;54.16;57044.25;5007992;28;20030;-83
2023/12/08 03:42:40;;;;;;;11.65;6.00;;;;;;;-144.05;54.46;57086.72;5007875;28;20038;-83
2023/12/08 03:45:07;;;;;;;10.57;6.60;;;;;;;-144.05;55.53;57088.84;5006512;28;20168;-83
2023/12/08 03:47:33;;;;;;;10.73;5.82;;;;;;;-144.05;55.21;57059.09;5006538;28;20100;-85
2023/12/08 03:49:59;;;;;;;12.30;6.05;;;;;;;-144.05;56.59;57048.50;5007729;28;20452;-85
2023/12/08 03:52:25;;;;;;;10.45;5.85;;;;;;;-144.05;55.67;57061.22;4997071;28;20034;-85
2023/12/08 03:54:52;;;;;;;14.38;6.72;;;;;;;-144.05;57.04;57071.84;4994658;28;20065;-83
2023/12/08 03:57:18;;;;;;;11.75;7.75;;;;;;;-144.05;58.73;57059.09;4994728;28;20445;-82
2023/12/08 03:59:44;;;;;;;12.40;6.47;;;;;;;-144.05;58.04;57069.72;4993058;28;20034;-82
2023/12/08 04:02:10;;;;;;;11.82;6.25;;;;;;;-144.05;59.33;57061.22;4994530;28;20038;-83
2023/12/08 04:04:36;;;;;;;11.55;6.85;;;;;;;-144.05;59.93;57086.72;4994800;28;20113;-82
2023/12/08 04:07:03;;;;;;;13.50;7.78;;;;;;;-144.05;59.76;57069.72;4993195;28;20523;-83
2023/12/08 04:09:32;;;;;;;12.75;6.90;;;;;;;-144.05;60.41;57073.97;4992998;28;20053;-82
2023/12/08 04:11:58;;;;;;;11.98;7.05;;;;;;;-144.05;60.21;57061.22;4993131;28;20119;-83
2023/12/08 04:14:24;;;;;;;11.50;6.93;;;;;;;-144.05;60.68;57076.09;4994300;28;20034;-83
2023/12/08 04:16:53;;;;;;;12.25;7.40;;;;;;;-144.05;60.86;57029.38;4993181;28;20469;-81
2023/12/08 04:19:20;;;;;;;13.70;6.85;;;;;;;-144.05;61.50;57084.59;4992909;28;20030;-82
2023/12/08 04:21:46;;;;;;;13.23;7.50;;;;;;;-144.05;61.94;57071.84;4993000;28;20034;-83
2023/12/08 04:24:12;;;;;;;14.88;7.82;;;;;;;-144.05;61.82;57073.97;4993083;28;20037;-81
2023/12/08 04:26:44;;;;;;;13.60;7.53;;;;;;;-144.05;61.46;57061.22;4994137;28;20077;-84
2023/12/08 04:29:10;;;;;;;16.02;8.10;;;;;;;-144.05;62.87;57054.88;4992725;28;20057;-83
2023/12/08 04:31:36;;;;;;;15.38;8.23;;;;;;;-144.05;63.53;57065.47;4992553;28;20022;-83
2023/12/08 04:34:02;;;;;;;15.75;7.45;;;;;;;-144.05;63.10;57086.72;4992791;28;20319;-82
2023/12/08 04:36:29;;;;;;;14.93;7.72;;;;;;;-144.05;64.03;57063.34;4993871;28;20029;-84
2023/12/08 04:38:55;;;;;;;13.00;7.32;;;;;;;-144.05;64.20;57073.97;4992387;28;20030;-81
2023/12/08 04:41:21;;;;;;;14.40;7.13;;;;;;;-144.05;64.25;57050.63;4993871;28;20023;-82
2023/12/08 04:43:47;;;;;;;12.60;7.78;;;;;;;-144.05;63.75;57084.59;4994323;28;20117;-81
2023/12/08 04:46:13;;;;;;;12.25;6.88;;;;;;;-144.05;63.05;57069.72;5004647;28;20031;-85
2023/12/08 04:48:40;;;;;;;11.23;7.05;;;;;;;-144.05;63.61;57073.97;5003707;28;20434;-83
2023/12/08 04:51:07;;;;;;;12.52;7.10;;;;;;;-144.05;64.18;57073.97;5005313;28;20026;-86
2023/12/08 04:53:33;;;;;;;12.95;7.50;;;;;;;-144.05;65.35;57076.09;4996828;28;20034;-84
2023/12/08 04:55:59;;;;;;;10.25;6.82;;;;;;;-144.05;64.37;57088.84;4993305;28;20034;-83
2023/12/08 04:58:25;;;;;;;11.93;7.57;;;;;;;-144.05;64.73;57076.09;4992742;28;20027;-80
2023/12/08 05:00:51;;;;;;;13.32;7.43;;;;;;;-144.05;65.91;57078.22;4992457;28;20038;-82
2023/12/08 05:03:18;;;;;;;11.70;6.13;;;;;;;-144.05;64.90;57056.97;4992841;28;20493;-80
2023/12/08 05:05:44;;;;;;;14.88;6.65;;;;;;;-144.05;65.31;57059.09;4993718;28;20033;-82
2023/12/08 05:08:11;;;;;;;9.82;6.00;;;;;;;-144.05;65.69;57065.47;4993589;28;20030;-84
2023/12/08 05:10:37;;;;;;;11.73;6.25;;;;;;;-144.05;66.42;57035.75;4994772;28;20073;-85
2023/12/08 05:13:03;;;;;;;14.55;6.70;;;;;;;-144.05;66.58;57048.50;4993871;28;20045;-82
2023/12/08 05:15:29;;;;;;;15.25;6.47;;;;;;;-144.05;66.75;57082.47;4993954;28;20488;-82
2023/12/08 05:17:56;;;;;;;11.20;7.00;;;;;;;-144.05;67.73;57029.38;4994666;28;20125;-82
2023/12/08 05:20:22;;;;;;;13.43;6.78;;;;;;;-144.05;67.84;57059.09;4993994;28;20480;-80
2023/12/08 05:22:48;;;;;;;14.38;7.65;;;;;;;-144.05;69.49;57080.34;4993650;28;20065;-83
2023/12/08 05:25:14;;;;;;;15.40;7.45;;;;;;;-144.05;68.58;57084.59;4993413;28;20404;-79
2023/12/08 05:27:41;;;;;;;17.35;8.15;;;;;;;-144.05;68.99;57063.34;4994371;28;20148;-82
2023/12/08 05:30:16;;;;;;;15.10;8.68;;;;;;;-144.05;69.18;57061.22;5017201;28;20029;-77
2023/12/08 05:32:43;;;;;;;16.73;8.32;;;;;;;-144.05;69.77;57035.75;5001644;28;20045;-82
2023/12/08 05:35:09;;;;;;;14.07;8.50;;;;;;;-144.05;70.11;57073.97;4992795;28;20472;-84
2023/12/08 05:37:35;;;;;;;14.57;8.25;;;;;;;-144.05;70.98;57052.75;4993499;28;20043;-85
2023/12/08 05:40:02;;;;;;;17.65;8.98;;;;;;;-144.05;70.76;57078.22;4995186;28;20037;-82
2023/12/08 05:42:28;;;;;;;18.27;9.35;;;;;;;-144.05;72.08;57059.09;4993410;28;20030;-80
2023/12/08 05:44:54;;;;;;;15.93;9.15;;;;;;;-144.05;71.61;57065.47;4993944;28;20037;-82
2023/12/08 05:47:20;;;;;;;16.52;9.80;;;;;;;-144.05;71.28;57040.00;4993443;28;20054;-81
2023/12/08 05:49:46;;;;;;;19.35;9.00;;;;;;;-144.05;71.27;57078.22;4993115;28;20026;-83
2023/12/08 05:52:13;;;;;;;16.55;9.18;;;;;;;-144.05;71.34;57044.25;5009446;28;20030;-82
2023/12/08 05:54:39;;;;;;;15.43;9.15;;;;;;;-144.05;71.06;57061.22;5009651;28;20132;-82
2023/12/08 05:57:06;;;;;;;16.88;8.85;;;;;;;-144.05;71.41;57056.97;4994008;28;20034;-82
2023/12/08 05:59:32;;;;;;;19.58;9.30;;;;;;;-144.05;71.28;57035.75;4994693;28;20034;-83
2023/12/08 06:01:58;;;;;;;18.13;9.23;;;;;;;-144.05;71.25;57076.09;4993390;28;20035;-82
2023/12/08 06:04:24;;;;;;;14.93;8.73;;;;;;;-144.05;70.74;57050.63;4993836;28;20053;-83
2023/12/08 06:06:51;;;;;;;16.83;10.05;;;;;;;-144.05;70.91;57050.63;4994027;28;20115;-82
2023/12/08 06:09:17;;;;;;;14.63;9.55;;;;;;;-144.05;71.13;57046.38;4994173;28;20400;-81
2023/12/08 06:11:44;;;;;;;19.52;8.85;;;;;;;-144.05;71.63;57048.50;4994296;28;20036;-80
2023/12/08 06:14:10;;;;;;;18.20;9.57;;;;;;;-144.05;71.57;57073.97;4997371;28;20109;-82
2023/12/08 06:16:36;;;;;;;16.92;8.65;;;;;;;-144.05;70.64;57076.09;4993692;28;20026;-84
2023/12/08 06:19:04;;;;;;;17.67;9.40;;;;;;;-144.05;71.21;57097.34;4998518;28;20026;-84
2023/12/08 06:21:30;;;;;;;20.02;9.75;;;;;;;-144.05;71.34;57076.09;4999640;28;20029;-84
2023/12/08 06:23:57;;;;;;;17.27;9.27;;;;;;;-144.05;71.01;57054.88;4996135;28;20049;-84
2023/12/08 06:26:26;;;;;;;19.38;9.32;;;;;;;-144.05;71.16;57046.38;4995200;28;20034;-82
2023/12/08 06:28:53;;;;;;;16.75;8.93;;;;;;;-144.05;71.03;57076.09;4996778;28;20022;-81
2023/12/08 06:31:19;;;;;;;12.77;7.80;;;;;;;-144.05;71.62;57073.97;4996346;28;20428;-83
2023/12/08 06:33:45;;;;;;;17.77;9.35;;;;;;;-144.05;71.55;57050.63;4994715;28;20034;-81
2023/12/08 06:36:12;;;;;;;16.67;8.52;;;;;;;-144.05;71.76;57067.59;4994333;28;20030;-82
2023/12/08 06:38:39;;;;;;;18.48;8.55;;;;;;;-144.05;71.10;57008.13;4994306;28;20026;-81
2023/12/08 06:41:05;;;;;;;14.13;8.75;;;;;;;-144.05;71.35;57059.09;4996824;28;20499;-83
2023/12/08 06:43:32;;;;;;;15.48;9.05;;;;;;;-144.05;71.89;57054.88;4997928;28;20034;-82
2023/12/08 06:46:01;;;;;;;18.38;9.15;;;;;;;-144.05;71.43;57056.97;5004468;28;20094;-82
2023/12/08 06:48:27;;;;;;;16.70;9.45;;;;;;;-144.05;72.71;57071.84;5013261;28;20030;-82
2023/12/08 06:50:53;;;;;;;16.13;9.50;;;;;;;-144.05;71.96;57054.88;4995012;28;20042;-84
2023/12/08 06:53:20;;;;;;;17.17;9.68;;;;;;;-144.05;71.42;57071.84;4999260;28;20042;-83
2023/12/08 06:55:46;;;;;;;16.52;9.55;;;;;;;-144.05;71.31;57059.09;5000069;28;20168;-81
2023/12/08 06:58:13;;;;;;;17.38;9.85;;;;;;;-144.05;72.09;57048.50;4993312;28;20452;-81
2023/12/08 07:00:39;;;;;;;16.38;8.73;;;;;;;-144.05;73.35;57063.34;4997068;28;20417;-81
2023/12/08 07:03:06;;;;;;;19.48;9.10;;;;;;;-144.05;72.31;57067.59;4997384;28;20609;-82
2023/12/08 07:05:32;;;;;;;21.30;9.88;;;;;;;-144.05;72.49;57071.84;4992372;28;20054;-79
2023/12/08 07:07:58;;;;;;;19.90;9.85;;;;;;;-144.05;73.06;57050.63;4992349;28;20095;-82
2023/12/08 07:10:25;;;;;;;19.95;9.98;;;;;;;-144.05;72.93;57080.34;4993948;28;20137;-81
2023/12/08 07:12:51;;;;;;;17.50;10.00;;;;;;;-144.05;72.58;57065.47;4994828;28;20038;-81
2023/12/08 07:15:17;;;;;;;18.17;9.38;;;;;;;-144.05;72.55;57063.34;4996210;28;20146;-81
2023/12/08 07:17:44;;;;;;;17.98;9.45;;;;;;;-144.05;73.65;57059.09;4994593;28;20451;-83
2023/12/08 07:20:11;;;;;;;18.65;10.52;;;;;;;-144.05;73.37;57078.22;4994604;28;20022;-80
2023/12/08 07:22:37;;;;;;;15.82;9.23;;;;;;;-144.05;72.83;57071.84;5014340;28;20023;-77
2023/12/08 07:25:04;;;;;;;19.85;10.40;;;0.90;99.90;;;-144.05;73.03;57061.22;5007296;28;20041;-81
2023/12/08 07:27:32;;;;;;;18.25;9.98;;;;;;;-144.05;72.75;57054.88;5014879;28;20081;-81
2023/12/08 07:29:58;;;;;;;16.83;9.90;;;;;;;-144.05;72.44;57029.38;4998183;28;20432;-81
2023/12/08 07:32:25;;;;;;;17.58;9.63;;;;;;;-144.05;72.58;57029.38;4998948;28;20112;-81
2023/12/08 07:34:51;;;;;;;16.80;9.73;;;;;;;-144.05;72.63;57046.38;4997776;28;20030;-82
2023/12/08 07:37:17;;;;;;;16.95;9.77;;;;;;;-144.05;72.55;57018.75;4997571;28;20034;-79
2023/12/08 07:39:44;;;;;;;16.55;9.85;;;;;;;-144.05;72.33;57006.00;4997665;28;20034;-83
2023/12/08 07:42:11;;;;;;;20.20;9.95;;;;;;;-144.05;72.59;57050.63;4999171;28;20037;-80
2023/12/08 07:44:37;;;;;;;15.10;9.18;;;;;;;-144.05;72.56;57048.50;4999092;28;20341;-78
2023/12/08 07:47:04;;;;;;;20.58;10.85;;;;;;;-144.05;73.45;57056.97;4997392;28;20101;-80
2023/12/08 07:49:30;;;;;;;18.45;9.98;;;;;;;-144.05;73.77;57025.13;4997068;28;20041;-83
2023/12/08 07:51:57;;;;;;;19.75;9.88;;;;;;;-144.05;74.21;57061.22;4998920;28;20458;-80
2023/12/08 07:54:24;;;;;;;20.55;10.80;;;;;;;-144.05;75.05;57044.25;4997934;28;20034;-81
2023/12/08 07:56:51;;;;;;;17.65;10.50;;;;;;;-144.05;75.65;57033.63;5013675;28;20037;-81
2023/12/08 07:59:17;;;;;;;21.45;10.88;;;;;;;-144.05;75.54;57065.47;4996533;28;20393;-81
2023/12/08 08:01:43;;;;;;;18.77;11.15;;;;;;;-144.05;76.10;57048.50;4996501;28;20400;-81
2023/12/08 08:04:10;;;;;;;20.00;11.55;;;;;;;-144.05;76.16;57042.13;4996112;28;20326;-82
2023/12/08 08:06:36;;;;;;;18.50;11.25;;;;;;;-144.05;75.81;57042.13;4995656;28;20036;-82
2023/12/08 08:09:03;;;;;;;22.33;12.18;;;;;;;-144.05;76.22;57044.25;4997131;28;20042;-78
2023/12/08 08:11:29;;;;;;;21.05;12.43;;;;;;;-144.05;76.10;57065.47;4995662;28;20022;-81
2023/12/08 08:13:56;;;;;;;24.55;13.15;;;;;;;-144.05;76.40;57046.38;4996060;28;20538;-82
2023/12/08 08:16:22;;;;;;;22.83;12.40;;;;;;;-144.05;77.17;57080.34;4995850;28;20053;-81
2023/12/08 08:18:48;;;;;;;19.10;10.75;;;;;;;-144.05;77.06;57063.34;4995836;28;20045;-81
2023/12/08 08:21:15;;;;;;;22.58;11.88;;;;;;;-144.05;76.42;57046.38;4995708;28;20485;-81
2023/12/08 08:23:43;;;;;;;19.88;11.23;;;;;;;-144.05;75.99;57061.22;4996818;28;20033;-85
2023/12/08 08:26:09;;;;;;;23.55;13.10;;;;;;;-144.05;77.09;57033.63;4996629;28;20433;-81
2023/12/08 08:28:35;;;;;;;20.10;11.35;;;;;;;-144.05;76.46;57042.13;4996902;28;20116;-82
2023/12/08 08:31:02;;;;;;;23.23;12.40;;;;;;;-144.05;76.22;57065.47;4995761;28;20110;-81
2023/12/08 08:33:28;;;;;;;21.70;11.68;;;;;;;-144.05;75.84;57040.00;4996972;28;20480;-81
2023/12/08 08:35:54;;;;;;;20.02;11.23;;;;;;;-144.05;76.02;57020.88;4995501;28;20059;-82
2023/12/08 08:38:23;;;;;;;23.42;12.88;;;;;;;-144.05;76.57;57014.50;4996073;28;20061;-82
2023/12/08 08:40:49;;;;;;;20.58;11.43;;;;;;;-144.05;75.60;57023.00;4995886;28;20030;-81
2023/12/08 08:43:15;;;;;;;19.02;11.13;;;;;;;-144.05;75.45;57035.75;4995001;28;20058;-82
2023/12/08 08:45:42;;;;;;;18.05;10.85;;;;;;;-144.05;75.04;57065.47;4996941;28;20026;-82
2023/12/08 08:48:08;;;;;;;23.88;12.25;;;;;;;-144.05;74.94;57050.63;5008343;28;20090;-85
2023/12/08 08:50:34;;;;;;;21.42;11.48;;;;;;;-144.05;74.96;57023.00;5002740;28;20053;-82
2023/12/08 08:53:00;;;;;;;20.10;11.98;;;;;;;-144.05;75.10;57065.47;5002515;28;20037;-82
2023/12/08 08:55:27;;;;;;;19.70;11.00;;;;;;;-144.05;74.61;57031.50;5000843;28;20030;-84
2023/12/08 08:57:55;;;;;;;18.30;10.40;;;;;;;-144.05;74.64;57048.50;4997330;28;20250;-83
2023/12/08 09:00:21;;;;;;;22.80;12.18;;;;;;;-144.05;74.25;57042.13;4996388;28;20647;-80
2023/12/08 09:02:51;;;;;;;23.35;11.52;;;;;;;-144.05;74.34;57035.75;4996509;28;20125;-83
2023/12/08 09:05:19;;;;;;;19.67;11.13;;;;;;;-144.05;74.34;57052.75;4996063;28;20022;-80
2023/12/08 09:07:46;;;;;;;20.83;11.25;;;;;;;-144.05;74.59;57040.00;4996417;28;20523;-81
2023/12/08 09:10:12;;;;;;;20.08;11.70;;;;;;;-144.05;74.71;57054.88;4996555;28;20026;-80
2023/12/08 09:12:39;;;;;;;22.50;12.82;;;;;;;-144.05;74.21;57054.88;5012961;28;20094;-77
2023/12/08 09:15:05;;;;;;;23.05;12.15;;;;;;;-144.05;74.59;57040.00;5008643;28;20042;-79
2023/12/08 09:17:32;;;;;;;22.30;12.88;;;;;;;-144.05;74.41;57071.84;4995749;28;20488;-80
2023/12/08 09:19:58;;;;;;;23.35;11.98;;;;;;;-144.05;73.92;57048.50;4996570;28;20027;-81
2023/12/08 09:22:24;;;;;;;23.92;13.52;;;;;;;-144.05;74.04;57071.84;4996060;28;20037;-80
2023/12/08 09:24:50;;;;;;;24.70;12.38;;;;;;;-144.05;74.41;57027.25;4995061;28;20073;-81
2023/12/08 09:27:17;;;;;;;23.00;13.10;;;;;;;-144.05;74.41;57065.47;4995264;28;20044;-83
2023/12/08 09:29:43;;;;;;;24.92;12.75;;;;;;;-144.05;74.64;57071.84;4996488;28;20062;-83
2023/12/08 09:32:09;;;;;;;19.77;11.93;;;;;;;-144.05;73.99;57033.63;4995409;28;20109;-82
2023/12/08 09:34:35;;;;;;;24.98;14.25;;;;;;;-144.05;74.82;57052.75;4995365;28;20034;-84
2023/12/08 09:37:02;;;;;;;21.73;12.32;;;;;;;-144.05;74.41;57020.88;4995731;28;20026;-82
2023/12/08 09:39:28;;;;;;;24.40;12.80;;;;;;;-144.05;74.49;57027.25;4995132;28;20076;-84
2023/12/08 09:42:06;;;;;;;24.65;13.07;;;;;;;-144.05;74.40;57044.25;4994748;28;20077;-82
2023/12/08 09:44:34;;;;;;;25.85;13.05;;;5.10;99.90;;;-144.05;74.18;57048.50;4996219;28;20037;-82
2023/12/08 09:47:05;;;;;;;25.50;13.50;;;5.70;99.90;;;-144.05;74.63;57059.09;4995209;28;20121;-80
2023/12/08 09:49:49;;;;;;;23.77;13.98;;;4.70;99.90;;;-144.05;74.05;57042.13;5010583;28;20555;-80
2023/12/08 09:52:16;;;;;;;25.10;13.75;;;;;;;-144.05;74.00;57040.00;4996363;28;20647;-81
2023/12/08 09:54:44;;;;;;;26.23;13.35;;;;;;;-144.05;74.73;57046.38;4993701;28;20026;-82
2023/12/08 09:57:10;;;;;;;22.40;12.63;;;;;;;-144.05;74.07;57052.75;4993977;28;20042;-81
2023/12/08 09:59:39;;;;;;;21.27;12.10;;;;;;;-144.05;75.08;57048.50;4993846;28;20113;-82
2023/12/08 10:02:09;;;;;;;25.25;13.00;;;;;;;-144.05;74.36;57020.88;5009754;28;20037;-81
2023/12/08 10:04:36;;;;;;;23.25;13.93;;;;;;;-144.05;74.48;57018.75;4993552;28;20026;-80
2023/12/08 10:07:04;;;;;;;22.58;12.85;;;;;;;-144.05;74.86;57018.75;4994263;28;20026;-81
2023/12/08 10:09:31;;;;;;;25.20;13.15;;;;;;;-144.05;74.84;57031.50;4995650;28;20037;-80
2023/12/08 10:11:58;;;;;;;27.33;13.80;;;;;;;-144.05;74.41;57065.47;4993092;28;20026;-81
2023/12/08 10:14:25;;;;;;;24.05;12.20;;;;;;;-144.05;74.68;57048.50;4994767;28;20045;-81
2023/12/08 10:16:52;;;;;;;23.85;13.30;;;;;;;-144.05;74.71;57027.25;4995616;28;20030;-81
2023/12/08 10:19:21;;;;;;;24.17;13.15;;;5.00;99.90;;;-144.05;74.45;57046.38;4994283;28;20084;-80
2023/12/08 10:22:02;;;;;;;21.23;12.35;;;5.10;99.90;;;-144.05;74.70;57044.25;4995104;28;20053;-82
2023/12/08 10:24:30;;;;;;;23.30;12.02;;;5.40;99.90;;;-144.05;74.90;57040.00;5009189;28;20022;-81
2023/12/08 10:26:59;;;;;;;26.85;13.00;;;5.40;99.90;;;-144.05;74.93;57061.22;4993337;28;20084;-82
2023/12/08 10:29:31;;;;;;;26.30;13.93;;;;;;;-144.05;74.90;57040.00;4993925;28;20026;-83
2023/12/08 10:31:59;;;;;;;23.70;13.75;;;5.30;99.90;;;-144.05;75.27;57029.38;4992630;28;20030;-81
2023/12/08 10:34:26;;;;;;;23.90;13.90;;;;;;;-144.05;75.38;57025.13;5009863;28;20033;-82
2023/12/08 10:36:55;;;;;;;25.27;12.93;;;;;;;-144.05;76.20;57056.97;4994347;28;20030;-81
2023/12/08 10:39:23;;;;;;;27.70;13.88;;;;;;;-144.05;75.23;57042.13;4995242;28;20108;-82
2023/12/08 10:41:52;;;;;;;23.20;13.07;;;4.30;99.90;;;-144.05;74.53;56986.91;4995105;28;20484;-81
2023/12/08 10:44:22;;;;;;;20.98;12.02;;;;;;;-144.05;75.06;57010.25;4995566;28;20069;-83
2023/12/08 10:46:50;;;;;;;23.70;12.55;;;;;;;-144.05;75.13;57046.38;4993433;28;20034;-79
2023/12/08 10:49:21;;;;;;;23.17;12.15;;;;;;;-144.05;74.83;57042.13;4993229;28;20088;-83
2023/12/08 10:51:49;;;;;;;21.17;11.95;;;;;;;-144.05;74.71;57031.50;4993725;28;20054;-81
2023/12/08 10:54:17;;;;;;;23.02;11.45;;;4.70;99.90;;;-144.05;75.37;56999.63;4994028;28;20045;-81
2023/12/08 10:56:46;;;;;;;19.90;11.05;;;5.20;99.90;;;-144.05;74.54;57033.63;5012900;28;20080;-79
2023/12/08 10:59:24;;;;;;;19.60;10.68;;;5.90;99.90;;;-144.05;74.31;56995.38;5012597;28;20026;-80
2023/12/08 11:01:54;;;;;;;20.33;11.40;;;5.90;99.90;;;-144.05;74.23;57029.38;5021877;28;20026;-80
2023/12/08 11:04:25;;;;;;;22.25;10.73;;;5.90;99.90;;;-144.05;74.61;57035.75;5031927;28;20037;-85
2023/12/08 11:06:59;;;;;;;22.15;11.25;;;;;;;-144.05;75.37;57023.00;4997964;28;20191;-81